createdAt,value
2023-04-23T00:00:54.196Z,14.43
2023-04-23T00:01:51.698Z,14.36
2023-04-23T00:02:51.835Z,14.43
2023-04-23T00:03:51.869Z,14.33
2023-04-23T00:04:51.930Z,14.42
2023-04-23T00:05:51.792Z,14.46
2023-04-23T00:06:51.824Z,14.46
2023-04-23T00:07:51.844Z,14.36
2023-04-23T00:08:51.873Z,14.29
2023-04-23T00:09:51.904Z,14.42
2023-04-23T00:10:51.928Z,14.40
2023-04-23T00:11:51.945Z,14.32
2023-04-23T00:12:51.971Z,14.42
2023-04-23T00:13:51.993Z,14.39
2023-04-23T00:14:52.020Z,14.43
2023-04-23T00:15:52.063Z,14.40
2023-04-23T00:16:52.067Z,14.43
2023-04-23T00:17:52.120Z,14.39
2023-04-23T00:18:52.124Z,14.29
2023-04-23T00:19:52.143Z,14.35
2023-04-23T00:20:52.164Z,14.37
2023-04-23T00:21:52.201Z,14.29
2023-04-23T00:22:52.224Z,14.29
2023-04-23T00:23:52.241Z,14.29
2023-04-23T00:24:52.261Z,14.29
2023-04-23T00:25:52.287Z,14.35
2023-04-23T00:26:52.313Z,14.28
2023-04-23T00:27:52.341Z,14.22
2023-04-23T00:28:52.363Z,14.27
2023-04-23T00:29:52.384Z,14.25
2023-04-23T00:30:52.415Z,14.29
2023-04-23T00:31:52.453Z,14.18
2023-04-23T00:32:52.508Z,14.15
2023-04-23T00:33:52.486Z,14.07
2023-04-23T00:34:52.512Z,13.96
2023-04-23T00:35:52.534Z,13.99
2023-04-23T00:36:52.557Z,14.02
2023-04-23T00:37:52.586Z,13.89
2023-04-23T00:38:52.612Z,13.88
2023-04-23T00:39:52.637Z,13.81
2023-04-23T00:40:52.656Z,13.75
2023-04-23T00:41:52.711Z,13.75
2023-04-23T00:42:52.702Z,13.70
2023-04-23T00:43:52.756Z,13.63
2023-04-23T00:44:52.752Z,13.59
2023-04-23T00:45:52.830Z,13.57
2023-04-23T00:46:52.799Z,13.69
2023-04-23T00:47:52.869Z,13.62
2023-04-23T00:48:52.848Z,13.54
2023-04-23T00:49:52.874Z,13.60
2023-04-23T00:50:52.951Z,13.55
2023-04-23T00:51:52.923Z,13.54
2023-04-23T00:52:52.955Z,13.57
2023-04-23T00:53:52.967Z,13.54
2023-04-23T00:54:52.999Z,13.51
2023-04-23T00:55:53.027Z,13.60
2023-04-23T00:56:53.052Z,13.55
2023-04-23T00:57:53.066Z,13.63
2023-04-23T00:58:53.090Z,13.55
2023-04-23T00:59:53.115Z,13.52
2023-04-23T01:00:53.147Z,13.59
2023-04-23T01:01:53.172Z,13.60
2023-04-23T01:02:53.431Z,13.57
2023-04-23T01:03:53.546Z,13.59
2023-04-23T01:04:53.238Z,13.60
2023-04-23T01:05:53.260Z,13.62
2023-04-23T01:06:53.288Z,13.62
2023-04-23T01:07:53.309Z,13.63
2023-04-23T01:08:53.332Z,13.67
2023-04-23T01:09:53.354Z,13.64
2023-04-23T01:10:53.377Z,13.75
2023-04-23T01:11:53.404Z,13.64
2023-04-23T01:12:53.437Z,13.66
2023-04-23T01:13:53.448Z,13.64
2023-04-23T01:14:53.470Z,13.62
2023-04-23T01:15:53.508Z,13.54
2023-04-23T01:16:53.566Z,13.55
2023-04-23T01:17:53.638Z,13.60
2023-04-23T01:18:53.570Z,13.52
2023-04-23T01:19:53.597Z,13.60
2023-04-23T01:20:53.621Z,13.57
2023-04-23T01:21:53.649Z,13.57
2023-04-23T01:22:53.673Z,13.60
2023-04-23T01:23:53.696Z,13.52
2023-04-23T01:24:53.727Z,13.63
2023-04-23T01:25:53.738Z,13.55
2023-04-23T01:26:53.768Z,13.51
2023-04-23T01:27:53.788Z,13.42
2023-04-23T01:28:53.816Z,13.42
2023-04-23T01:29:53.837Z,13.39
2023-04-23T01:30:53.884Z,13.48
2023-04-23T01:31:53.883Z,13.29
2023-04-23T01:32:53.946Z,13.38
2023-04-23T01:33:53.932Z,13.28
2023-04-23T01:34:53.972Z,13.29
2023-04-23T01:35:53.981Z,13.26
2023-04-23T01:36:54.011Z,13.30
2023-04-23T01:37:54.030Z,13.28
2023-04-23T01:38:54.062Z,13.22
2023-04-23T01:39:54.074Z,13.22
2023-04-23T01:40:54.100Z,13.17
2023-04-23T01:41:54.124Z,13.15
2023-04-23T01:42:54.154Z,13.14
2023-04-23T01:43:54.171Z,13.14
2023-04-23T01:44:54.191Z,13.03
2023-04-23T01:45:54.279Z,13.03
2023-04-23T01:46:54.243Z,13.14
2023-04-23T01:47:54.273Z,13.15
2023-04-23T01:48:54.302Z,13.17
2023-04-23T01:49:54.321Z,13.05
2023-04-23T01:50:54.526Z,13.05
2023-04-23T01:51:54.361Z,13.04
2023-04-23T01:52:54.382Z,13.03
2023-04-23T01:53:54.409Z,12.96
2023-04-23T01:54:54.430Z,13.00
2023-04-23T01:55:54.455Z,13.12
2023-04-23T01:56:54.478Z,13.04
2023-04-23T01:57:54.501Z,13.07
2023-04-23T01:58:54.525Z,13.04
2023-04-23T01:59:54.548Z,13.01
2023-04-23T02:00:54.570Z,13.05
2023-04-23T02:01:54.630Z,13.11
2023-04-23T02:02:54.712Z,13.04
2023-04-23T02:03:54.782Z,13.04
2023-04-23T02:04:54.671Z,13.05
2023-04-23T02:05:54.692Z,13.14
2023-04-23T02:06:54.791Z,13.07
2023-04-23T02:07:54.751Z,13.07
2023-04-23T02:08:54.771Z,13.08
2023-04-23T02:09:54.786Z,13.19
2023-04-23T02:10:54.815Z,13.04
2023-04-23T02:11:54.837Z,13.03
2023-04-23T02:12:54.856Z,13.04
2023-04-23T02:13:54.883Z,13.07
2023-04-23T02:14:54.906Z,13.04
2023-04-23T02:15:54.956Z,13.07
2023-04-23T02:16:54.953Z,13.04
2023-04-23T02:17:55.004Z,13.05
2023-04-23T02:18:55.010Z,13.05
2023-04-23T02:19:55.027Z,13.04
2023-04-23T02:20:55.054Z,13.04
2023-04-23T02:21:55.079Z,13.05
2023-04-23T02:22:55.103Z,13.08
2023-04-23T02:23:55.132Z,13.11
2023-04-23T02:24:55.147Z,13.10
2023-04-23T02:25:55.171Z,12.92
2023-04-23T02:26:55.193Z,13.01
2023-04-23T02:27:55.219Z,12.96
2023-04-23T02:28:55.240Z,12.97
2023-04-23T02:29:55.266Z,12.96
2023-04-23T02:30:55.292Z,13.00
2023-04-23T02:31:55.458Z,13.01
2023-04-23T02:32:55.388Z,12.97
2023-04-23T02:33:55.366Z,13.00
2023-04-23T02:34:55.386Z,13.00
2023-04-23T02:35:55.421Z,13.00
2023-04-23T02:36:55.429Z,12.93
2023-04-23T02:37:55.459Z,12.93
2023-04-23T02:38:55.480Z,12.89
2023-04-23T02:39:55.505Z,12.90
2023-04-23T02:40:55.526Z,12.92
2023-04-23T02:41:55.558Z,12.87
2023-04-23T02:42:55.569Z,12.92
2023-04-23T02:43:55.606Z,12.86
2023-04-23T02:44:55.626Z,12.83
2023-04-23T02:45:55.646Z,12.86
2023-04-23T02:46:55.688Z,12.82
2023-04-23T02:47:55.769Z,12.87
2023-04-23T02:48:55.776Z,12.83
2023-04-23T02:49:55.744Z,12.90
2023-04-23T02:50:55.770Z,12.85
2023-04-23T02:51:55.784Z,12.85
2023-04-23T02:52:55.813Z,12.77
2023-04-23T02:53:55.833Z,12.83
2023-04-23T02:54:55.857Z,12.75
2023-04-23T02:55:55.879Z,12.75
2023-04-23T02:56:55.929Z,12.77
2023-04-23T02:57:55.928Z,12.75
2023-04-23T02:58:55.950Z,12.74
2023-04-23T02:59:55.972Z,12.72
2023-04-23T03:00:56.028Z,12.77
2023-04-23T03:01:56.023Z,12.74
2023-04-23T03:02:56.151Z,12.78
2023-04-23T03:03:56.222Z,12.79
2023-04-23T03:04:56.122Z,12.77
2023-04-23T03:05:56.111Z,12.74
2023-04-23T03:06:56.139Z,12.68
2023-04-23T03:07:56.161Z,12.67
2023-04-23T03:08:56.194Z,12.72
2023-04-23T03:09:56.212Z,12.68
2023-04-23T03:10:56.235Z,12.67
2023-04-23T03:11:56.262Z,12.65
2023-04-23T03:12:56.277Z,12.57
2023-04-23T03:13:56.308Z,12.60
2023-04-23T03:14:56.327Z,12.64
2023-04-23T03:15:56.352Z,12.59
2023-04-23T03:16:56.428Z,12.67
2023-04-23T03:17:56.416Z,12.64
2023-04-23T03:18:56.428Z,12.56
2023-04-23T03:19:56.445Z,12.52
2023-04-23T03:20:56.477Z,12.52
2023-04-23T03:21:56.497Z,12.52
2023-04-23T03:22:56.525Z,12.47
2023-04-23T03:23:56.552Z,12.46
2023-04-23T03:24:56.563Z,12.39
2023-04-23T03:25:56.585Z,12.41
2023-04-23T03:26:56.608Z,12.42
2023-04-23T03:27:56.650Z,12.38
2023-04-23T03:28:56.656Z,12.39
2023-04-23T03:29:56.682Z,12.45
2023-04-23T03:30:56.743Z,12.42
2023-04-23T03:31:56.748Z,12.45
2023-04-23T03:32:56.811Z,12.41
2023-04-23T03:33:56.768Z,12.42
2023-04-23T03:34:56.795Z,12.29
2023-04-23T03:35:56.822Z,12.35
2023-04-23T03:36:56.850Z,12.29
2023-04-23T03:37:56.867Z,12.34
2023-04-23T03:38:56.889Z,12.34
2023-04-23T03:39:56.916Z,12.29
2023-04-23T03:40:56.935Z,12.32
2023-04-23T03:41:56.959Z,12.24
2023-04-23T03:42:56.990Z,12.27
2023-04-23T03:43:57.016Z,12.24
2023-04-23T03:44:57.034Z,12.28
2023-04-23T03:45:57.064Z,12.17
2023-04-23T03:46:57.075Z,12.28
2023-04-23T03:47:57.122Z,12.19
2023-04-23T03:48:57.135Z,12.13
2023-04-23T03:49:57.165Z,12.16
2023-04-23T03:50:57.171Z,12.13
2023-04-23T03:51:57.192Z,12.10
2023-04-23T03:52:57.219Z,12.14
2023-04-23T03:53:57.263Z,12.16
2023-04-23T03:54:57.262Z,12.16
2023-04-23T03:55:57.287Z,12.13
2023-04-23T03:56:57.310Z,12.16
2023-04-23T03:57:57.332Z,12.14
2023-04-23T03:58:57.355Z,12.12
2023-04-23T03:59:57.381Z,12.12
2023-04-23T04:00:57.404Z,12.19
2023-04-23T04:01:57.428Z,12.10
2023-04-23T04:02:57.618Z,12.13
2023-04-23T04:03:57.698Z,12.12
2023-04-23T04:04:57.710Z,12.13
2023-04-23T04:05:57.524Z,12.16
2023-04-23T04:06:57.548Z,12.09
2023-04-23T04:07:57.570Z,12.07
2023-04-23T04:08:57.589Z,12.09
2023-04-23T04:09:57.621Z,12.07
2023-04-23T04:10:57.637Z,11.99
2023-04-23T04:11:57.659Z,12.07
2023-04-23T04:12:57.683Z,12.05
2023-04-23T04:13:57.708Z,12.02
2023-04-23T04:14:57.734Z,12.02
2023-04-23T04:15:57.813Z,12.12
2023-04-23T04:16:57.777Z,12.09
2023-04-23T04:17:57.851Z,12.05
2023-04-23T04:18:57.824Z,11.95
2023-04-23T04:19:57.853Z,11.98
2023-04-23T04:20:57.908Z,11.98
2023-04-23T04:21:57.889Z,11.96
2023-04-23T04:22:57.914Z,11.98
2023-04-23T04:23:58.008Z,11.83
2023-04-23T04:24:57.960Z,11.85
2023-04-23T04:25:57.996Z,11.75
2023-04-23T04:26:58.023Z,11.76
2023-04-23T04:27:58.031Z,11.75
2023-04-23T04:28:58.051Z,11.60
2023-04-23T04:29:58.073Z,11.62
2023-04-23T04:30:58.151Z,11.55
2023-04-23T04:31:58.125Z,11.61
2023-04-23T04:32:58.179Z,11.54
2023-04-23T04:33:58.170Z,11.47
2023-04-23T04:34:58.185Z,11.47
2023-04-23T04:35:58.214Z,11.44
2023-04-23T04:36:58.228Z,11.51
2023-04-23T04:37:58.252Z,11.54
2023-04-23T04:38:58.297Z,11.39
2023-04-23T04:39:58.302Z,11.44
2023-04-23T04:40:58.328Z,11.43
2023-04-23T04:41:58.345Z,11.46
2023-04-23T04:42:58.375Z,11.43
2023-04-23T04:43:58.397Z,11.43
2023-04-23T04:44:58.426Z,11.46
2023-04-23T04:45:58.433Z,11.44
2023-04-23T04:46:58.513Z,11.51
2023-04-23T04:47:58.544Z,11.51
2023-04-23T04:48:58.511Z,11.40
2023-04-23T04:49:58.523Z,11.40
2023-04-23T04:50:58.542Z,11.51
2023-04-23T04:51:58.565Z,11.49
2023-04-23T04:52:58.592Z,11.43
2023-04-23T04:53:58.619Z,11.44
2023-04-23T04:54:58.638Z,11.47
2023-04-23T04:55:58.656Z,11.55
2023-04-23T04:56:58.686Z,11.54
2023-04-23T04:57:58.714Z,11.58
2023-04-23T04:58:58.732Z,11.57
2023-04-23T04:59:58.752Z,11.61
2023-04-23T05:00:58.805Z,11.61
2023-04-23T05:01:58.846Z,11.67
2023-04-23T05:02:59.002Z,11.69
2023-04-23T05:03:58.984Z,11.60
2023-04-23T05:04:58.865Z,11.70
2023-04-23T05:05:58.939Z,11.76
2023-04-23T05:06:58.915Z,11.73
2023-04-23T05:07:58.942Z,11.73
2023-04-23T05:08:58.975Z,11.88
2023-04-23T05:09:58.976Z,11.91
2023-04-23T05:10:59.020Z,11.82
2023-04-23T05:11:59.027Z,11.91
2023-04-23T05:12:59.052Z,11.94
2023-04-23T05:13:59.069Z,11.98
2023-04-23T05:14:59.097Z,11.98
2023-04-23T05:15:59.124Z,12.07
2023-04-23T05:16:59.163Z,12.10
2023-04-23T05:17:59.202Z,12.10
2023-04-23T05:18:59.201Z,11.99
2023-04-23T05:19:59.213Z,12.09
2023-04-23T05:20:59.238Z,12.12
2023-04-23T05:21:59.262Z,12.16
2023-04-23T05:22:59.282Z,12.28
2023-04-23T05:23:59.311Z,12.24
2023-04-23T05:24:59.325Z,12.34
2023-04-23T05:25:59.360Z,12.35
2023-04-23T05:26:59.380Z,12.41
2023-04-23T05:27:59.394Z,12.47
2023-04-23T05:28:59.423Z,12.50
2023-04-23T05:29:59.442Z,12.59
2023-04-23T05:30:59.476Z,12.78
2023-04-23T05:31:59.538Z,12.79
2023-04-23T05:32:59.590Z,12.79
2023-04-23T05:33:59.545Z,12.85
2023-04-23T05:34:59.560Z,12.82
2023-04-23T05:35:59.604Z,12.70
2023-04-23T05:36:59.610Z,12.62
2023-04-23T05:37:59.628Z,12.62
2023-04-23T05:38:59.661Z,12.62
2023-04-23T05:39:59.678Z,12.68
2023-04-23T05:40:59.704Z,12.62
2023-04-23T05:41:59.718Z,12.74
2023-04-23T05:42:59.745Z,12.79
2023-04-23T05:43:59.765Z,12.83
2023-04-23T05:44:59.787Z,12.83
2023-04-23T05:45:59.839Z,12.96
2023-04-23T05:46:59.841Z,13.03
2023-04-23T05:47:59.893Z,13.00
2023-04-23T05:48:59.893Z,13.15
2023-04-23T05:49:59.954Z,13.29
2023-04-23T05:50:59.953Z,13.42
2023-04-23T05:51:59.992Z,13.42
2023-04-23T05:52:59.977Z,13.44
2023-04-23T05:53:59.998Z,13.59
2023-04-23T05:55:00.027Z,13.60
2023-04-23T05:56:00.055Z,13.62
2023-04-23T05:57:00.105Z,13.62
2023-04-23T05:58:00.110Z,13.70
2023-04-23T05:59:00.118Z,13.70
2023-04-23T06:00:00.154Z,13.62
2023-04-23T06:01:00.172Z,13.62
2023-04-23T06:02:00.190Z,13.57
2023-04-23T06:03:00.319Z,13.42
2023-04-23T06:04:00.355Z,13.48
2023-04-23T06:05:00.393Z,13.60
2023-04-23T06:06:00.355Z,13.62
2023-04-23T06:07:00.315Z,13.51
2023-04-23T06:08:00.334Z,13.54
2023-04-23T06:09:00.358Z,13.54
2023-04-23T06:10:00.381Z,13.63
2023-04-23T06:11:00.411Z,13.81
2023-04-23T06:12:00.432Z,13.99
2023-04-23T06:13:00.467Z,14.20
2023-04-23T06:14:00.475Z,14.35
2023-04-23T06:15:00.532Z,14.78
2023-04-23T06:16:00.582Z,15.21
2023-04-23T06:17:00.556Z,15.59
2023-04-23T06:18:00.684Z,15.80
2023-04-23T06:19:00.605Z,16.15
2023-04-23T06:20:00.631Z,16.50
2023-04-23T06:21:00.666Z,16.86
2023-04-23T06:22:00.686Z,17.11
2023-04-23T06:23:00.706Z,17.28
2023-04-23T06:24:00.734Z,17.66
2023-04-23T06:25:00.758Z,17.84
2023-04-23T06:26:00.785Z,17.95
2023-04-23T06:27:00.807Z,18.10
2023-04-23T06:28:00.838Z,18.45
2023-04-23T06:29:00.864Z,18.65
2023-04-23T06:30:00.888Z,18.87
2023-04-23T06:31:00.939Z,18.95
2023-04-23T06:32:00.941Z,18.95
2023-04-23T06:33:01.004Z,19.02
2023-04-23T06:34:00.996Z,18.99
2023-04-23T06:35:02.284Z,18.95
2023-04-23T06:36:01.065Z,18.92
2023-04-23T06:37:01.088Z,18.94
2023-04-23T06:38:01.105Z,18.82
2023-04-23T06:39:01.146Z,18.69
2023-04-23T06:40:01.193Z,18.67
2023-04-23T06:41:01.195Z,18.58
2023-04-23T06:42:01.228Z,18.51
2023-04-23T06:43:01.295Z,18.42
2023-04-23T06:44:01.280Z,18.48
2023-04-23T06:45:01.324Z,18.42
2023-04-23T06:46:01.342Z,18.25
2023-04-23T06:47:01.382Z,18.07
2023-04-23T06:48:01.447Z,17.95
2023-04-23T06:49:01.427Z,17.77
2023-04-23T06:50:01.460Z,17.63
2023-04-23T06:51:01.469Z,17.41
2023-04-23T06:52:01.499Z,17.38
2023-04-23T06:53:01.536Z,17.31
2023-04-23T06:54:01.582Z,17.26
2023-04-23T06:55:01.579Z,17.49
2023-04-23T06:56:01.610Z,17.43
2023-04-23T06:57:01.637Z,17.74
2023-04-23T06:58:01.670Z,17.86
2023-04-23T06:59:01.702Z,17.99
2023-04-23T07:00:01.728Z,17.87
2023-04-23T07:01:01.782Z,17.84
2023-04-23T07:02:01.786Z,17.81
2023-04-23T07:03:01.881Z,17.59
2023-04-23T07:04:01.860Z,17.43
2023-04-23T07:05:01.872Z,17.28
2023-04-23T07:06:01.965Z,17.18
2023-04-23T07:07:01.932Z,16.97
2023-04-23T07:08:01.977Z,16.98
2023-04-23T07:09:01.985Z,16.94
2023-04-23T07:10:02.014Z,16.89
2023-04-23T07:11:02.045Z,16.70
2023-04-23T07:12:02.068Z,16.66
2023-04-23T07:13:02.105Z,16.63
2023-04-23T07:14:02.128Z,16.71
2023-04-23T07:15:02.200Z,16.78
2023-04-23T07:16:02.180Z,16.71
2023-04-23T07:17:02.314Z,16.63
2023-04-23T07:18:02.255Z,16.56
2023-04-23T07:19:02.272Z,16.57
2023-04-23T07:20:02.535Z,16.61
2023-04-23T07:21:02.317Z,16.61
2023-04-23T07:22:02.346Z,16.78
2023-04-23T07:23:02.373Z,16.85
2023-04-23T07:24:02.397Z,16.96
2023-04-23T07:25:02.427Z,17.00
2023-04-23T07:26:02.447Z,17.06
2023-04-23T07:27:02.475Z,17.07
2023-04-23T07:28:02.503Z,17.14
2023-04-23T07:29:02.535Z,17.22
2023-04-23T07:30:02.560Z,17.31
2023-04-23T07:31:02.597Z,17.33
2023-04-23T07:32:02.684Z,17.37
2023-04-23T07:33:02.672Z,17.40
2023-04-23T07:34:02.820Z,17.49
2023-04-23T07:35:02.691Z,17.49
2023-04-23T07:36:02.715Z,17.59
2023-04-23T07:37:02.741Z,17.64
2023-04-23T07:38:02.773Z,17.68
2023-04-23T07:39:02.798Z,17.59
2023-04-23T07:40:02.821Z,17.74
2023-04-23T07:41:02.852Z,17.75
2023-04-23T07:42:02.879Z,17.70
2023-04-23T07:43:02.905Z,17.66
2023-04-23T07:44:02.932Z,17.77
2023-04-23T07:45:02.964Z,17.71
2023-04-23T07:46:02.987Z,17.82
2023-04-23T07:47:03.006Z,17.96
2023-04-23T07:48:03.245Z,17.97
2023-04-23T07:49:03.062Z,17.99
2023-04-23T07:50:03.106Z,17.99
2023-04-23T07:51:03.111Z,18.07
2023-04-23T07:52:03.140Z,18.18
2023-04-23T07:53:03.167Z,18.18
2023-04-23T07:54:03.193Z,18.25
2023-04-23T07:55:03.227Z,18.30
2023-04-23T07:56:03.265Z,18.33
2023-04-23T07:57:03.277Z,18.44
2023-04-23T07:58:03.302Z,18.54
2023-04-23T07:59:03.336Z,18.60
2023-04-23T08:00:03.353Z,18.70
2023-04-23T08:01:03.384Z,18.80
2023-04-23T08:02:03.498Z,18.82
2023-04-23T08:03:03.617Z,18.87
2023-04-23T08:04:03.733Z,18.90
2023-04-23T08:05:03.568Z,18.99
2023-04-23T08:06:03.566Z,19.06
2023-04-23T08:07:03.543Z,19.23
2023-04-23T08:08:03.572Z,19.31
2023-04-23T08:09:03.601Z,19.41
2023-04-23T08:10:03.632Z,19.44
2023-04-23T08:11:03.659Z,19.36
2023-04-23T08:12:03.681Z,19.46
2023-04-23T08:13:03.706Z,19.46
2023-04-23T08:14:03.754Z,19.59
2023-04-23T08:15:03.764Z,19.69
2023-04-23T08:16:03.821Z,19.87
2023-04-23T08:17:03.819Z,20.05
2023-04-23T08:18:03.845Z,20.11
2023-04-23T08:19:05.900Z,20.17
2023-04-23T08:20:03.923Z,20.39
2023-04-23T08:21:03.930Z,20.39
2023-04-23T08:22:03.960Z,20.50
2023-04-23T08:23:03.990Z,20.52
2023-04-23T08:24:04.022Z,20.47
2023-04-23T08:25:04.047Z,20.51
2023-04-23T08:26:04.078Z,20.52
2023-04-23T08:27:04.109Z,20.47
2023-04-23T08:28:04.166Z,20.47
2023-04-23T08:29:04.170Z,20.39
2023-04-23T08:30:04.192Z,20.38
2023-04-23T08:31:15.170Z,20.29
2023-04-23T08:32:04.266Z,20.31
2023-04-23T08:33:04.325Z,20.20
2023-04-23T08:34:04.310Z,20.14
2023-04-23T08:35:04.345Z,20.21
2023-04-23T08:36:04.370Z,20.14
2023-04-23T08:37:04.415Z,20.28
2023-04-23T08:38:04.433Z,20.18
2023-04-23T08:39:04.471Z,20.26
2023-04-23T08:40:04.493Z,20.13
2023-04-23T08:41:04.524Z,20.13
2023-04-23T08:42:04.545Z,20.01
2023-04-23T08:43:04.583Z,19.91
2023-04-23T08:44:04.605Z,19.87
2023-04-23T08:45:04.647Z,19.68
2023-04-23T08:46:04.660Z,19.66
2023-04-23T08:47:04.719Z,19.58
2023-04-23T08:48:04.773Z,19.55
2023-04-23T08:49:04.751Z,19.48
2023-04-23T08:50:04.785Z,19.48
2023-04-23T08:51:04.809Z,19.44
2023-04-23T08:52:04.839Z,19.46
2023-04-23T08:53:04.866Z,19.46
2023-04-23T08:54:04.916Z,19.47
2023-04-23T08:55:05.013Z,19.51
2023-04-23T08:56:04.956Z,19.48
2023-04-23T08:57:04.983Z,19.51
2023-04-23T08:58:05.013Z,19.66
2023-04-23T08:59:05.052Z,19.69
2023-04-23T09:00:05.078Z,19.74
2023-04-23T09:01:05.179Z,19.74
2023-04-23T09:02:05.201Z,19.78
2023-04-23T09:03:05.442Z,19.69
2023-04-23T09:04:05.220Z,19.77
2023-04-23T09:05:05.274Z,19.74
2023-04-23T09:06:05.243Z,19.71
2023-04-23T09:07:05.277Z,19.84
2023-04-23T09:08:05.303Z,19.88
2023-04-23T09:09:05.335Z,19.95
2023-04-23T09:10:05.410Z,20.10
2023-04-23T09:11:05.386Z,20.11
2023-04-23T09:12:05.423Z,20.14
2023-04-23T09:13:05.465Z,20.16
2023-04-23T09:14:05.477Z,20.38
2023-04-23T09:15:05.504Z,20.35
2023-04-23T09:16:05.574Z,20.38
2023-04-23T09:17:05.562Z,20.47
2023-04-23T09:18:05.630Z,20.59
2023-04-23T09:19:05.630Z,20.70
2023-04-23T09:20:05.656Z,20.73
2023-04-23T09:21:05.682Z,20.73
2023-04-23T09:22:05.716Z,20.70
2023-04-23T09:23:05.891Z,20.61
2023-04-23T09:24:05.772Z,20.55
2023-04-23T09:25:05.808Z,20.59
2023-04-23T09:26:05.847Z,20.51
2023-04-23T09:27:05.858Z,20.50
2023-04-23T09:28:05.890Z,20.42
2023-04-23T09:29:05.935Z,20.50
2023-04-23T09:30:05.951Z,20.51
2023-04-23T09:31:05.978Z,20.50
2023-04-23T09:32:06.053Z,20.51
2023-04-23T09:33:06.095Z,20.59
2023-04-23T09:34:06.066Z,20.58
2023-04-23T09:35:06.107Z,20.61
2023-04-23T09:36:06.126Z,20.72
2023-04-23T09:37:06.157Z,20.66
2023-04-23T09:38:06.187Z,20.67
2023-04-23T09:39:06.212Z,20.73
2023-04-23T09:40:06.240Z,20.76
2023-04-23T09:41:06.268Z,20.82
2023-04-23T09:42:06.305Z,20.85
2023-04-23T09:43:06.328Z,20.87
2023-04-23T09:44:06.409Z,20.94
2023-04-23T09:45:06.387Z,21.01
2023-04-23T09:46:06.446Z,21.13
2023-04-23T09:47:06.445Z,21.21
2023-04-23T09:48:06.613Z,21.22
2023-04-23T09:49:06.497Z,21.27
2023-04-23T09:50:06.533Z,21.25
2023-04-23T09:51:06.560Z,21.37
2023-04-23T09:52:06.600Z,21.35
2023-04-23T09:53:06.650Z,21.52
2023-04-23T09:54:06.660Z,21.56
2023-04-23T09:55:06.684Z,21.61
2023-04-23T09:56:06.715Z,21.54
2023-04-23T09:57:06.734Z,21.47
2023-04-23T09:58:06.760Z,21.38
2023-04-23T09:59:06.794Z,21.38
2023-04-23T10:00:14.212Z,21.31
2023-04-23T10:01:06.879Z,21.28
2023-04-23T10:02:07.074Z,21.27
2023-04-23T10:03:07.081Z,21.32
2023-04-23T10:04:07.152Z,21.28
2023-04-23T10:05:21.817Z,21.27
2023-04-23T10:07:17.977Z,21.19
2023-04-23T10:08:07.056Z,21.21
2023-04-23T10:09:07.082Z,21.13
2023-04-23T10:10:07.113Z,21.24
2023-04-23T10:11:20.478Z,21.22
2023-04-23T10:12:09.784Z,21.17
2023-04-23T10:13:07.196Z,21.24
2023-04-23T10:14:07.226Z,21.17
2023-04-23T10:15:07.253Z,21.22
2023-04-23T10:16:14.493Z,21.24
2023-04-23T10:17:07.363Z,21.17
2023-04-23T10:18:07.410Z,21.29
2023-04-23T10:19:07.372Z,21.24
2023-04-23T10:20:07.395Z,21.34
2023-04-23T10:21:07.446Z,21.28
2023-04-23T10:22:18.416Z,21.32
2023-04-23T10:23:07.486Z,21.44
2023-04-23T10:24:07.522Z,21.54
2023-04-23T10:25:07.545Z,21.58
2023-04-23T10:26:07.575Z,21.50
2023-04-23T10:28:07.630Z,21.69
2023-04-23T10:29:07.666Z,21.67
2023-04-23T10:30:07.693Z,21.67
2023-04-23T10:31:07.761Z,21.59
2023-04-23T10:32:07.758Z,21.58
2023-04-23T10:33:15.807Z,21.58
2023-04-23T10:34:07.821Z,21.56
2023-04-23T10:35:07.840Z,21.44
2023-04-23T10:36:07.873Z,21.44
2023-04-23T10:37:07.898Z,21.35
2023-04-23T10:38:07.928Z,21.34
2023-04-23T10:39:08.004Z,21.37
2023-04-23T10:40:08.002Z,21.42
2023-04-23T10:41:08.016Z,21.50
2023-04-23T10:42:08.051Z,21.53
2023-04-23T10:43:08.077Z,21.54
2023-04-23T10:44:08.107Z,21.53
2023-04-23T10:45:20.294Z,21.61
2023-04-23T10:46:08.195Z,21.59
2023-04-23T10:47:08.203Z,21.62
2023-04-23T10:48:08.233Z,21.56
2023-04-23T10:49:08.258Z,21.68
2023-04-23T10:50:08.288Z,21.62
2023-04-23T10:51:21.275Z,21.71
2023-04-23T10:52:19.345Z,21.79
2023-04-23T10:53:08.376Z,21.82
2023-04-23T10:54:08.405Z,21.84
2023-04-23T10:55:08.442Z,22.00
2023-04-23T10:56:08.464Z,21.98
2023-04-23T10:57:08.495Z,22.17
2023-04-23T10:58:08.646Z,22.21
2023-04-23T10:59:08.557Z,22.35
2023-04-23T11:00:08.591Z,22.33
2023-04-23T11:01:08.619Z,22.49
2023-04-23T11:02:08.768Z,22.57
2023-04-23T11:03:08.840Z,22.55
2023-04-23T11:04:08.808Z,22.58
2023-04-23T11:05:08.785Z,22.37
2023-04-23T11:06:08.772Z,22.36
2023-04-23T11:07:08.806Z,22.33
2023-04-23T11:08:18.865Z,22.30
2023-04-23T11:09:08.863Z,22.49
2023-04-23T11:10:08.899Z,22.60
2023-04-23T11:11:08.942Z,22.70
2023-04-23T11:12:08.969Z,22.70
2023-04-23T11:13:08.985Z,22.82
2023-04-23T11:14:09.020Z,22.88
2023-04-23T11:15:09.058Z,22.82
2023-04-23T11:16:09.113Z,22.94
2023-04-23T11:17:09.129Z,22.80
2023-04-23T11:18:09.194Z,22.77
2023-04-23T11:19:09.173Z,22.67
2023-04-23T11:20:09.204Z,22.67
2023-04-23T11:21:09.238Z,22.67
2023-04-23T11:22:09.268Z,22.72
2023-04-23T11:23:09.298Z,22.62
2023-04-23T11:24:09.326Z,22.45
2023-04-23T11:25:09.361Z,22.25
2023-04-23T11:26:09.388Z,22.31
2023-04-23T11:27:09.420Z,22.24
2023-04-23T11:28:09.450Z,22.14
2023-04-23T11:29:09.479Z,22.00
2023-04-23T11:30:09.564Z,21.94
2023-04-23T11:31:09.544Z,21.75
2023-04-23T11:32:09.588Z,21.56
2023-04-23T11:33:09.607Z,21.43
2023-04-23T11:34:09.634Z,21.25
2023-04-23T11:35:11.398Z,20.99
2023-04-23T11:36:09.702Z,20.85
2023-04-23T11:37:09.727Z,20.61
2023-04-23T11:38:09.760Z,20.51
2023-04-23T11:39:09.782Z,20.42
2023-04-23T11:40:09.811Z,20.28
2023-04-23T11:41:09.843Z,20.32
2023-04-23T11:42:09.869Z,20.21
2023-04-23T11:43:09.904Z,20.31
2023-04-23T11:44:09.928Z,20.32
2023-04-23T11:45:09.957Z,20.35
2023-04-23T11:46:10.051Z,20.41
2023-04-23T11:47:10.018Z,20.42
2023-04-23T11:48:10.048Z,20.35
2023-04-23T11:49:10.094Z,20.47
2023-04-23T11:50:10.109Z,20.57
2023-04-23T11:51:10.137Z,20.55
2023-04-23T11:52:10.175Z,20.57
2023-04-23T11:53:10.195Z,20.74
2023-04-23T11:54:10.228Z,20.77
2023-04-23T11:55:10.260Z,20.89
2023-04-23T11:56:10.282Z,20.94
2023-04-23T11:57:10.518Z,21.12
2023-04-23T11:58:10.343Z,21.24
2023-04-23T11:59:10.374Z,21.43
2023-04-23T12:00:10.403Z,21.50
2023-04-23T12:01:10.434Z,21.67
2023-04-23T12:02:10.528Z,21.79
2023-04-23T12:03:10.570Z,21.84
2023-04-23T12:04:10.666Z,21.98
2023-04-23T12:05:10.577Z,21.96
2023-04-23T12:06:10.586Z,22.00
2023-04-23T12:07:23.103Z,22.05
2023-04-23T12:08:10.649Z,22.09
2023-04-23T12:09:10.675Z,22.17
2023-04-23T12:10:10.734Z,21.99
2023-04-23T12:11:10.735Z,22.00
2023-04-23T12:12:10.767Z,22.10
2023-04-23T12:13:10.793Z,22.14
2023-04-23T12:14:10.825Z,22.25
2023-04-23T12:15:10.856Z,22.21
2023-04-23T12:16:11.309Z,22.21
2023-04-23T12:17:10.924Z,22.18
2023-04-23T12:18:10.952Z,22.17
2023-04-23T12:19:10.979Z,22.14
2023-04-23T12:20:11.021Z,22.20
2023-04-23T12:21:11.061Z,22.31
2023-04-23T12:22:11.072Z,22.30
2023-04-23T12:23:11.102Z,22.49
2023-04-23T12:24:11.134Z,22.55
2023-04-23T12:25:11.165Z,22.47
2023-04-23T12:26:11.196Z,22.54
2023-04-23T12:27:11.240Z,22.49
2023-04-23T12:28:11.263Z,22.47
2023-04-23T12:29:11.293Z,22.52
2023-04-23T12:30:11.340Z,22.57
2023-04-23T12:31:11.386Z,22.68
2023-04-23T12:32:11.416Z,22.77
2023-04-23T12:33:11.422Z,22.88
2023-04-23T12:34:11.445Z,22.86
2023-04-23T12:35:11.478Z,22.88
2023-04-23T12:36:11.508Z,22.91
2023-04-23T12:37:11.540Z,23.05
2023-04-23T12:38:11.574Z,23.01
2023-04-23T12:39:11.599Z,23.04
2023-04-23T12:40:11.650Z,23.13
2023-04-23T12:41:11.670Z,23.04
2023-04-23T12:42:11.696Z,23.02
2023-04-23T12:43:11.730Z,23.02
2023-04-23T12:44:11.761Z,23.16
2023-04-23T12:45:11.792Z,23.20
2023-04-23T12:46:11.867Z,23.22
2023-04-23T12:47:11.864Z,23.27
2023-04-23T12:48:11.891Z,23.28
2023-04-23T12:49:11.918Z,23.33
2023-04-23T12:50:11.950Z,23.43
2023-04-23T12:51:11.991Z,23.47
2023-04-23T12:52:13.900Z,23.61
2023-04-23T12:53:12.042Z,23.70
2023-04-23T12:54:12.078Z,23.73
2023-04-23T12:55:12.125Z,23.75